Meath Environmental Platform

Observations for Trim Market St

Time AQI Temp °C Hum % Pres Pa CO μg/m³ H₂S μg/m³ NO μg/m³ NO₂ μg/m³ O₃ μg/m³ SO₂ μg/m³ PM1 μg/m³ PM2.5 μg/m³ PM10 μg/m³
Friday 14 August 2026
20:01 2 23.1 48 61,135 0.08 0 1.21 12.49 63.69 0 0.71 2.54 2.79
19:58 2 23.2 48 61,593 0 0 1.21 11.35 69 0 0 2.55 2.81
19:56 2 23.2 48 62,004 0.07 0 1.22 26.31 55.69 0 3.56 5.67 6.77
19:54 2 23.3 47 62,331 0 0 1.22 10.48 69.22 0 0 2.05 2.26
19:49 2 23.4 47 62,709 0 0 1.22 10.38 71.92 0 0 2.59 2.94
19:48 2 23.4 47 62,748 0 0 1.22 10.9 68.2 0 0 3.11 3.42
19:47 2 23.4 47 62,772 0 0 1.24 10.35 64.28 0 0.71 2.59 2.85
19:46 2 23.4 47 62,794 0 0 1.24 10.6 71.17 0 0 2.59 2.85
19:44 2 23.5 47 62,804 0 0 1.21 10.61 75.02 0 0 2.59 2.94
19:43 2 23.5 47 62,823 0 0 1.2 10.51 70.87 0 0 2.08 2.28
19:41 2 23.6 47 62,886 0 0 1.18 10.34 67.64 0 0 2.6 2.86
19:40 2 23.6 47 62,911 0 0 1.18 20.7 54.63 0 0 3.12 3.43
19:38 2 23.7 46 62,995 0 0 1.19 10.36 70.12 0 0 2.6 2.86
19:34 2 23.8 46 63,143 0 0 1.16 10.37 74.37 0 0 2.1 2.31
19:33 2 23.8 46 63,215 0 0 1.16 10.67 71.5 0 0 2.1 2.31
19:31 2 23.9 46 63,231 0 0 1.15 10.43 74.8 0 0 2.1 2.31
19:26 2 24 46 63,221 0 0 1.13 10.59 72.32 0 0 2.11 2.32
19:22 2 24.1 46 63,483 0 0 1.12 10.19 72.86 0 0 2.64 2.91
19:19 2 24.2 45 63,623 0 0 1.12 10.14 76.74 0 0 2.13 2.34
19:18 2 24.2 45 63,699 0 0 1.13 10.42 72.31 0 0.71 2.65 2.92